Tijucas Do Sul, Brazil
Current Conditions -  °F | °C
As of 1:00 AM on Sunday 26 Oct 2014 (Local Time) from SBCT Reporting Station
Overcast Overcast  
Wind Chill: 63°   Ceiling: 300
Heat Index: 63°   Visibility: 4mi
Dew Point: 61°   Wind: 7mph
Humidity: 94%   Direction: 130°SE
Pressure: 30.06"   Gusts: NA
Location:  25.93°S, 49.18°W
Report Text: SBCT 260300Z 13006KT 6000 OVC003 17/16 Q1018
Loading
Personal Weather Stations






























Interactive Weather Map
Tropical Storm Tracking
New forecast layout! Learn more

10-Day Weather Forecast

Advertisements
Track Severe Weather on mobile